• Join FlightAware (Why Join?)
  • Login
  • US Flag 
09:08AM EST


 

Airport Tracker/Info


-or-


 

Live Flight TrackerFlight Track Log ✈ JUS205 ✈ 23-Apr-2013 ✈ KAUS - MMIO / SLW

Flight Track Log - Related Links

Times and Time Zones

All times are in EDT time to prevent confusion due to time zone crossing. See the JUS205 flight status page for this flight to view local times or setup timezone preferences in your user account.

Time Position Orientation Groundspeed Altitude Reporting Facility
EDT Latitude Longitude Course Direction KTS MPH feet Rate Location/Type
09:02PM 26.4092 -100.3019 30° Northeast 436 502 24,700  Level Houston Center
09:03PM 26.5178 -100.2311 30° Northeast 446 513 25,000 120 Climbing Houston Center
09:04PM 26.6222 -100.1556 33° Northeast 447 514 25,000  Level Houston Center
09:05PM 26.7244 -100.0781 34° Northeast 447 514 25,000  Level Houston Center
09:06PM 26.8311 -100.0056 31° Northeast 446 513 25,000 -480 Level Houston Center
09:07PM 26.9319 -99.9281 34° Northeast 444 511 24,100 -1,620 Descending Houston Center
09:08PM 27.0250 -99.8633 32° Northeast 415 478 21,800 -2,400 Descending Houston Center
09:09PM 27.1153 -99.7939 34° Northeast 401 461 19,300 -2,520 Descending Houston Center
09:10PM 27.2033 -99.7275 34° Northeast 391 450 16,700 -2,760 Descending Houston Center
09:11PM 27.3089 -99.6575 31° Northeast 374 430 13,700 -2,520 Descending Houston Center
09:12PM 27.3911 -99.5944 34° Northeast 366 421 11,600 -1,920 Descending Houston Center
09:13PM 27.4758 -99.5675 16° North 341 392 9,800 -1,620 Descending Houston Center
09:14PM 27.5586 -99.5881 348° North 319 367 8,300 -1,500 Descending Houston Center
09:16PM 27.3864 -99.7052 211° Southwest  Level Estimated
09:23PM 26.6317 -100.2135 213° Southwest  Level Estimated
09:24PM 26.5181 -100.2738 205° Southwest  Level FlightAware Approximate
09:25PM 26.4045 -100.3340 205° Southwest  Level FlightAware Approximate
09:26PM 26.2909 -100.3941 205° Southwest  Level FlightAware Approximate
09:27PM 26.1855 -100.4706 211° Southwest  Level Estimated
09:28PM 26.0801 -100.5469 213° Southwest  Level Estimated
09:29PM 25.9698 -100.6141 209° Southwest  Level FlightAware Approximate
09:30PM 25.8656 -100.6923 214° Southwest  Level Estimated
09:31PM 25.7614 -100.7704 214° Southwest  Level Estimated
09:32PM 25.6571 -100.8484 208° Southwest  Level Estimated
09:33PM 25.5528 -100.9262 208° Southwest  Level Estimated
09:34PM 25.5495 -100.9287 208° Southwest  Level Estimated
09:35PM 25.5495 -100.9287 208° Southwest  Level Estimated
09:36PM 25.5495 -100.9287 208° Southwest  Level Estimated
09:37PM 25.5495 -100.9287 208° Southwest  Level Estimated
09:38PM 25.5495 -100.9287 208° Southwest  Level Estimated
09:39PM 25.5495 -100.9287 208° Southwest  Level Estimated
09:40PM 25.5495 -100.9287 208° Southwest  Level Estimated
09:41PM 25.5495 -100.9287 208° Southwest  Level Estimated
09:42PM 25.5495 -100.9287 208° Southwest  Level Estimated
09:43PM 25.5495 -100.9287 208° Southwest  Level Estimated
09:44PM 25.5495 -100.9287 208° Southwest  Level Estimated
09:45PM 25.5495 -100.9287 208° Southwest  Level Estimated
09:46PM 25.5495 -100.9287 208° Southwest  Level Estimated
09:47PM 25.5495 -100.9287 208° Southwest  Level Estimated
09:48PM 25.5495 -100.9287 208° Southwest  Level Estimated
09:49PM 25.5495 -100.9287 208° Southwest  Level Estimated
09:50PM 25.5495 -100.9287 208° Southwest  Level Estimated
09:51PM 25.5495 -100.9287 208° Southwest  Level Estimated
09:52PM 25.5495 -100.9287 208° Southwest  Level Estimated
09:53PM 25.5495 -100.9287 208° Southwest  Level Estimated
09:54PM 25.5495 -100.9287 208° Southwest  Level Estimated
09:55PM 25.5495 -100.9287 208° Southwest  Level Estimated
09:56PM 25.5495 -100.9287 208° Southwest  Level Estimated
09:57PM 25.5495 -100.9287 208° Southwest  Level Estimated
09:58PM 25.5495 -100.9287 208° Southwest  Level Estimated
09:59PM 25.5495 -100.9287 208° Southwest  Level Estimated
10:00PM 25.5495 -100.9287 208° Southwest  Level Estimated
10:01PM 25.5495 -100.9287 208° Southwest  Level Estimated
10:02PM 25.5495 -100.9287 208° Southwest  Level Estimated
10:03PM 25.5495 -100.9287 208° Southwest  Level Estimated
10:04PM 25.5495 -100.9287 208° Southwest  Level Estimated
10:05PM 25.5495 -100.9287 208° Southwest  Level Estimated
10:06PM 25.5495 -100.9287 208° Southwest  Level Estimated